SKSP/ADZ METAR and TAF weather

Enter ICAO airport designator
Station Type Date Time Source
SKSP METAR 2019/12/07 15:00 UTC NOAA

SKSP 071500Z 06013KT 030V090 9999 FEW018 30/24 A3000


Station Type Date Time Source
SKSP Decoded METAR 2019/12/07 15:00 UTC NOAA

San Andres Isla / Sesquicentenario, Colombia (SKSP) 12-35N 081-43W 6M
Dec 07, 2019 - 10:00 AM EST / 2019.12.07 1500 UTC
Wind: from the ENE (060 degrees) at 15 MPH (13 KT) (direction variable):0
Visibility: greater than 7 mile(s):0
Sky conditions: mostly clear
Temperature: 86 F (30 C)
Heat index: 95.0 F (35.0 C):1
Dew Point: 75 F (24 C)
Relative Humidity: 70%
Pressure (altimeter): 30 in. Hg (1015 hPa)
ob: SKSP 071500Z 06013KT 030V090 9999 FEW018 30/24 A3000
cycle: 15

Station Type Date Time Source
SKSP TAF 2019/12/07 12:45 UTC NOAA

TAF SKSP 071030Z 0712/0812 03012KT 9999 FEW015 SCT080 PROB40
TEMPO 0709/0713 5000 TSRA SCT013CB TX31/0719Z TN26/0811Z

Example: see airport list